createdAt,value
2023-03-11T00:00:00.000Z,73.21
2023-03-11T00:15:00.000Z,70.24
2023-03-11T00:30:00.000Z,68.65
2023-03-11T00:45:00.000Z,68.17
2023-03-11T01:00:00.000Z,66.5
2023-03-11T01:15:00.000Z,66.42
2023-03-11T01:30:00.000Z,66.48
2023-03-11T01:45:00.000Z,65.26
2023-03-11T02:00:00.000Z,64.5
2023-03-11T02:15:00.000Z,63.86
2023-03-11T02:30:00.000Z,63.78
2023-03-11T02:45:00.000Z,63.74
2023-03-11T03:00:00.000Z,63.6
2023-03-11T03:15:00.000Z,63.31
2023-03-11T03:30:00.000Z,64.52
2023-03-11T03:45:00.000Z,65.39
2023-03-11T04:00:00.000Z,67.79
2023-03-11T04:15:00.000Z,67.98
2023-03-11T04:30:00.000Z,61.8
2023-03-11T04:45:00.000Z,59.14
2023-03-11T05:00:00.000Z,58.3
2023-03-11T05:15:00.000Z,58.11
2023-03-11T05:30:00.000Z,57.95
2023-03-11T05:45:00.000Z,57.84
2023-03-11T06:00:00.000Z,57.7
2023-03-11T06:15:00.000Z,57.98
2023-03-11T06:30:00.000Z,58.61
2023-03-11T06:45:00.000Z,58.57
2023-03-11T07:00:00.000Z,58.1
2023-03-11T07:15:00.000Z,57.87
2023-03-11T07:30:00.000Z,58
2023-03-11T07:45:00.000Z,58.09
2023-03-11T08:00:00.000Z,57.51
2023-03-11T08:15:00.000Z,55.58
2023-03-11T08:30:00.000Z,54.35
2023-03-11T08:45:00.000Z,54.16
2023-03-11T09:00:00.000Z,53.49
2023-03-11T09:15:00.000Z,53.56
2023-03-11T09:30:00.000Z,51.91
2023-03-11T09:45:00.000Z,50.39
2023-03-11T10:00:00.000Z,49.89
2023-03-11T10:15:00.000Z,46.86
2023-03-11T10:30:00.000Z,42.99
2023-03-11T10:45:00.000Z,43.31
2023-03-11T11:00:00.000Z,42.31
2023-03-11T11:15:00.000Z,38.95
2023-03-11T11:30:00.000Z,37.12
2023-03-11T11:45:00.000Z,38.57
2023-03-11T12:00:00.000Z,42.26
2023-03-11T12:15:00.000Z,43.2
2023-03-11T12:30:00.000Z,44.09
2023-03-11T12:45:00.000Z,44.43
2023-03-11T13:00:00.000Z,43.87
2023-03-11T13:15:00.000Z,43.31
2023-03-11T13:30:00.000Z,41.48
2023-03-11T13:45:00.000Z,41.8
2023-03-11T14:00:00.000Z,42.14
2023-03-11T14:15:00.000Z,42.4
2023-03-11T14:30:00.000Z,44.01
2023-03-11T14:45:00.000Z,43.94
2023-03-11T15:00:00.000Z,45.13
2023-03-11T15:15:00.000Z,45.35
2023-03-11T15:30:00.000Z,46.43
2023-03-11T15:45:00.000Z,46.81
2023-03-11T16:00:00.000Z,46.46
2023-03-11T16:15:00.000Z,47.29
2023-03-11T16:30:00.000Z,47.45
2023-03-11T16:45:00.000Z,48.9
2023-03-11T17:00:00.000Z,50.09
2023-03-11T17:15:00.000Z,50.3
2023-03-11T17:30:00.000Z,50.7
2023-03-11T17:45:00.000Z,50.8
2023-03-11T18:00:00.000Z,50.43
2023-03-11T18:15:00.000Z,50.9
2023-03-11T18:30:00.000Z,51.48
2023-03-11T18:45:00.000Z,51.36
2023-03-11T19:00:00.000Z,51.19
2023-03-11T19:15:00.000Z,52.6
2023-03-11T19:30:00.000Z,54.39
2023-03-11T19:45:00.000Z,54.46
2023-03-11T20:00:00.000Z,54.88
2023-03-11T20:15:00.000Z,55.12
2023-03-11T20:30:00.000Z,55.55
2023-03-11T20:45:00.000Z,56.22
2023-03-11T21:00:00.000Z,56.69
2023-03-11T21:15:00.000Z,57.28
2023-03-11T21:30:00.000Z,58.14
2023-03-11T21:45:00.000Z,57.84
2023-03-11T22:00:00.000Z,58.36
2023-03-11T22:15:00.000Z,59.5
2023-03-11T22:30:00.000Z,60.51
2023-03-11T22:45:00.000Z,61.44
2023-03-11T23:00:00.000Z,62.34
2023-03-11T23:15:00.000Z,63.67
2023-03-11T23:30:00.000Z,65.36
2023-03-11T23:45:00.000Z,64.96
